MNB6041 LTFM-LHBP
Flight info
| Callsign | MNB6041 |
|---|---|
| Flight time | N/A |
| Altitude | 38000 |
| Route | TUDBU Q26 ETUBA DCT DEGET DCT KEZAL |
| Aircraft | A306/H-SDE3FGHIRWY/LB1 |
Departure
| Time | 2026-05-04 09:44 |
|---|---|
| Airport | İstanbul Airport (LTFM) |
Arrival
| Time | N/A |
|---|---|
| Airport | Budapest Liszt Ferenc International Airport (LHBP) |
| Time | Latitude | Longitude | Altitude | Speed | Heading |
|---|---|---|---|---|---|
| 2026-05-04 09:17 | 41.26888 | 28.71848 | 340 ft | 0 kts | 359° |
| 2026-05-04 09:32 | 41.26886 | 28.71848 | 336 ft | 2 kts | 359° |
| 2026-05-04 09:34 | 41.26789 | 28.71806 | 335 ft | 2 kts | 83° |
| 2026-05-04 09:34 | 41.26788 | 28.71798 | 336 ft | 0 kts | 87° |
| 2026-05-04 09:37 | 41.26792 | 28.72045 | 337 ft | 20 kts | 85° |
| 2026-05-04 09:37 | 41.26793 | 28.72226 | 337 ft | 18 kts | 102° |
| 2026-05-04 09:38 | 41.26698 | 28.72288 | 339 ft | 16 kts | 179° |
| 2026-05-04 09:38 | 41.26592 | 28.72290 | 337 ft | 15 kts | 177° |
| 2026-05-04 09:38 | 41.26524 | 28.72291 | 335 ft | 15 kts | 179° |
| 2026-05-04 09:38 | 41.26474 | 28.72293 | 336 ft | 14 kts | 178° |
| 2026-05-04 09:39 | 41.26441 | 28.72294 | 336 ft | 14 kts | 178° |
| 2026-05-04 09:39 | 41.26348 | 28.72296 | 336 ft | 13 kts | 178° |
| 2026-05-04 09:40 | 41.26232 | 28.72311 | 337 ft | 12 kts | 156° |
| 2026-05-04 09:40 | 41.26207 | 28.72370 | 335 ft | 10 kts | 93° |
| 2026-05-04 09:40 | 41.26207 | 28.72401 | 336 ft | 0 kts | 89° |
| 2026-05-04 09:40 | 41.26207 | 28.72402 | 336 ft | 0 kts | 89° |
| 2026-05-04 09:41 | 41.26207 | 28.72403 | 336 ft | 0 kts | 89° |
| 2026-05-04 09:42 | 41.26207 | 28.72432 | 336 ft | 7 kts | 89° |
| 2026-05-04 09:43 | 41.26236 | 28.72518 | 338 ft | 11 kts | 30° |
| 2026-05-04 09:43 | 41.26303 | 28.72524 | 339 ft | 8 kts | 359° |
| 2026-05-04 09:43 | 41.26306 | 28.72524 | 339 ft | 0 kts | 359° |
| 2026-05-04 09:43 | 41.26324 | 28.72525 | 336 ft | 10 kts | 0° |
| 2026-05-04 09:44 | 41.26637 | 28.72517 | 339 ft | 88 kts | 359° |
| 2026-05-04 09:44 | 41.27533 | 28.72487 | 423 ft | 164 kts | 357° |
| 2026-05-04 09:44 | 41.28778 | 28.72433 | 1463 ft | 192 kts | 356° |
| 2026-05-04 09:46 | 41.37735 | 28.71221 | 12009 ft | 183 kts | 356° |
| 2026-05-04 09:46 | 41.39027 | 28.70964 | 12942 ft | 196 kts | 352° |
| 2026-05-04 09:46 | 41.40425 | 28.70513 | 13359 ft | 219 kts | 348° |
| 2026-05-04 09:47 | 41.41957 | 28.69839 | 13655 ft | 245 kts | 344° |
| 2026-05-04 09:47 | 41.43625 | 28.68960 | 13997 ft | 269 kts | 341° |
| 2026-05-04 09:49 | 41.58032 | 28.59489 | 16690 ft | 379 kts | 323° |
| 2026-05-04 09:49 | 41.59900 | 28.56938 | 17301 ft | 389 kts | 316° |
| 2026-05-04 09:49 | 41.61686 | 28.54175 | 17910 ft | 395 kts | 315° |
| 2026-05-04 09:51 | 41.70779 | 28.34849 | 21140 ft | 431 kts | 297° |
| 2026-05-04 09:51 | 41.71934 | 28.31133 | 21668 ft | 434 kts | 297° |
| 2026-05-04 09:51 | 41.73111 | 28.27398 | 22177 ft | 437 kts | 297° |
| 2026-05-04 09:51 | 41.74310 | 28.23638 | 22675 ft | 441 kts | 297° |
| 2026-05-04 09:52 | 41.75528 | 28.19854 | 23160 ft | 444 kts | 297° |
| 2026-05-04 09:52 | 41.76756 | 28.16050 | 23603 ft | 448 kts | 297° |
| 2026-05-04 09:52 | 41.78005 | 28.12196 | 23979 ft | 451 kts | 297° |
| 2026-05-04 09:52 | 41.79404 | 28.08427 | 24327 ft | 452 kts | 304° |
| 2026-05-04 09:53 | 41.81148 | 28.04927 | 24689 ft | 452 kts | 310° |
| 2026-05-04 09:53 | 41.83049 | 28.01564 | 25042 ft | 454 kts | 311° |
| 2026-05-04 09:53 | 41.84990 | 27.98215 | 25383 ft | 457 kts | 312° |
| 2026-05-04 09:53 | 41.86579 | 27.95467 | 25666 ft | 460 kts | 311° |
| 2026-05-04 09:54 | 41.88575 | 27.91985 | 25999 ft | 463 kts | 311° |
| 2026-05-04 09:54 | 41.90510 | 27.88578 | 26306 ft | 467 kts | 311° |
| 2026-05-04 09:54 | 41.92505 | 27.85043 | 26634 ft | 470 kts | 311° |
| 2026-05-04 09:54 | 41.94455 | 27.81572 | 26938 ft | 474 kts | 311° |
| 2026-05-04 09:55 | 41.96473 | 27.78062 | 27236 ft | 475 kts | 313° |
| 2026-05-04 09:55 | 41.98666 | 27.74667 | 27524 ft | 477 kts | 316° |
| 2026-05-04 09:55 | 42.00902 | 27.71409 | 27801 ft | 479 kts | 317° |
| 2026-05-04 09:55 | 42.03209 | 27.68171 | 28093 ft | 481 kts | 318° |
| 2026-05-04 09:56 | 42.05556 | 27.64945 | 28453 ft | 482 kts | 319° |
| 2026-05-04 09:56 | 42.07732 | 27.61980 | 28832 ft | 482 kts | 319° |